Time;durP1;ratioP1;P1;durP2;ratioP2;P2;SDS_P1;SDS_P2;PMS_P1;PMS_P2;Temp;Humidity;BMP_temperature;BMP_pressure;BME280_temperature;BME280_humidity;BME280_pressure;Samples;Min_cycle;Max_cycle;Signal;HPM_P1;HPM_P2
2023/10/30 00:01:45;;;;;;;2.13;0.57;;;13.70;89.30;;;;;;5029598;28;20532;-46
2023/10/30 00:04:13;;;;;;;1.83;0.70;;;13.60;89.20;;;;;;5028534;28;20463;-46
2023/10/30 00:06:41;;;;;;;3.07;1.20;;;13.60;89.20;;;;;;5029393;28;20446;-46
2023/10/30 00:09:10;;;;;;;1.80;1.17;;;13.60;89.20;;;;;;5025638;28;20465;-46
2023/10/30 00:11:39;;;;;;;1.73;0.90;;;13.60;89.20;;;;;;5029617;28;20566;-47
2023/10/30 00:14:07;;;;;;;2.03;1.07;;;13.60;89.30;;;;;;5027438;28;20472;-46
2023/10/30 00:16:35;;;;;;;3.00;0.90;;;13.60;89.40;;;;;;5027770;28;20528;-46
2023/10/30 00:19:04;;;;;;;3.10;0.77;;;13.60;89.40;;;;;;5027508;28;20537;-46
2023/10/30 00:21:32;;;;;;;3.30;1.00;;;13.60;89.30;;;;;;5029638;28;20477;-46
2023/10/30 00:24:01;;;;;;;3.90;1.40;;;13.60;89.40;;;;;;5025021;28;20488;-45
2023/10/30 00:26:30;;;;;;;3.20;1.10;;;13.60;89.40;;;;;;5028636;28;20469;-46
2023/10/30 00:28:58;;;;;;;2.83;1.13;;;13.60;89.40;;;;;;5027207;28;20649;-46
2023/10/30 00:31:26;;;;;;;2.13;0.70;;;13.60;89.30;;;;;;5011498;28;20493;-45
2023/10/30 00:33:54;;;;;;;1.50;0.70;;;13.60;89.20;;;;;;5027248;28;20512;-46
2023/10/30 00:36:23;;;;;;;3.60;1.00;;;13.60;89.30;;;;;;5027607;28;20521;-46
2023/10/30 00:38:51;;;;;;;2.13;0.97;;;13.60;89.40;;;;;;5005388;28;20496;-46
2023/10/30 00:41:19;;;;;;;2.40;0.97;;;13.60;89.30;;;;;;5027041;28;20507;-45
2023/10/30 00:43:48;;;;;;;4.83;1.00;;;13.60;89.30;;;;;;5027546;28;20474;-46
2023/10/30 00:46:17;;;;;;;9.40;2.60;;;13.60;89.30;;;;;;5027640;28;20496;-46
2023/10/30 00:48:45;;;;;;;2.43;0.80;;;13.60;89.20;;;;;;5025852;28;20482;-46
2023/10/30 00:51:13;;;;;;;2.50;1.03;;;13.60;89.20;;;;;;5010603;28;20946;-46
2023/10/30 00:53:41;;;;;;;3.63;0.80;;;13.60;89.20;;;;;;5007240;28;20477;-46
2023/10/30 00:56:09;;;;;;;2.20;0.70;;;13.60;89.30;;;;;;5010743;28;20537;-46
2023/10/30 00:58:37;;;;;;;2.10;0.67;;;13.60;89.10;;;;;;5027879;28;20479;-47
2023/10/30 01:01:09;;;;;;;2.50;0.93;;;13.60;89.20;;;;;;5028436;28;20505;-46
2023/10/30 01:03:37;;;;;;;2.47;0.77;;;13.60;89.10;;;;;;5025016;28;20829;-46
2023/10/30 01:06:06;;;;;;;1.70;0.90;;;13.60;89.00;;;;;;5028488;28;20466;-46
2023/10/30 01:08:34;;;;;;;2.30;0.70;;;13.60;89.10;;;;;;5024716;28;21002;-46
2023/10/30 01:11:02;;;;;;;3.77;1.20;;;13.60;89.00;;;;;;5025046;28;20811;-45
2023/10/30 01:13:32;;;;;;;2.50;0.80;;;13.60;89.00;;;;;;5026894;28;20475;-46
2023/10/30 01:16:00;;;;;;;2.00;0.90;;;13.60;88.90;;;;;;5006630;28;20471;-46
2023/10/30 01:18:30;;;;;;;1.47;0.67;;;13.60;88.90;;;;;;5027428;28;20468;-45
2023/10/30 01:20:58;;;;;;;2.27;1.27;;;13.60;88.80;;;;;;5009906;28;20475;-45
2023/10/30 01:23:26;;;;;;;1.80;0.50;;;13.60;88.90;;;;;;5026069;28;20577;-47
2023/10/30 01:25:53;;;;;;;2.60;1.00;;;13.60;88.90;;;;;;5010311;28;20479;-46
2023/10/30 01:28:21;;;;;;;2.00;0.77;;;13.60;88.80;;;;;;5024776;28;20901;-46
2023/10/30 01:30:49;;;;;;;4.30;0.67;;;13.60;88.80;;;;;;5026763;28;20439;-46
2023/10/30 01:33:17;;;;;;;2.00;0.97;;;13.60;88.90;;;;;;5023788;28;20914;-46
2023/10/30 01:35:47;;;;;;;3.10;1.13;;;13.60;89.00;;;;;;5010403;28;21028;-46
2023/10/30 01:38:15;;;;;;;4.30;0.87;;;13.60;88.90;;;;;;5008199;28;20521;-45
2023/10/30 01:40:47;;;;;;;2.13;0.80;;;13.60;88.90;;;;;;5026832;28;20827;-46
2023/10/30 01:43:15;;;;;;;1.83;0.80;;;13.60;88.90;;;;;;5009847;28;20509;-46
2023/10/30 01:45:43;;;;;;;3.67;1.10;;;13.60;88.80;;;;;;5027848;28;20880;-45
2023/10/30 01:48:12;;;;;;;3.50;0.87;;;13.60;88.80;;;;;;5026021;28;20620;-46
2023/10/30 01:50:40;;;;;;;2.90;0.90;;;13.60;88.90;;;;;;5009741;28;20451;-46
2023/10/30 01:53:10;;;;;;;2.10;1.00;;;13.60;88.80;;;;;;5025500;28;20577;-46
2023/10/30 01:55:39;;;;;;;2.20;0.87;;;13.60;88.90;;;;;;5027450;28;20487;-46
2023/10/30 01:58:07;;;;;;;2.43;1.50;;;13.60;88.90;;;;;;5009160;28;20468;-45
2023/10/30 02:00:35;;;;;;;1.73;0.60;;;13.60;88.90;;;;;;5009740;28;20530;-46
2023/10/30 02:03:04;;;;;;;2.20;0.77;;;13.50;88.90;;;;;;5025780;28;20519;-45
2023/10/30 02:05:33;;;;;;;3.50;1.00;;;13.60;88.80;;;;;;5009875;28;20795;-46
2023/10/30 02:08:02;;;;;;;2.23;0.90;;;13.60;88.90;;;;;;5005719;28;20470;-46
2023/10/30 02:10:32;;;;;;;3.87;1.03;;;13.60;88.90;;;;;;5026985;28;20938;-46
2023/10/30 02:13:00;;;;;;;4.67;1.33;;;13.60;88.90;;;;;;5009627;28;20510;-46
2023/10/30 02:15:29;;;;;;;2.50;0.90;;;13.50;88.80;;;;;;5026143;28;20456;-46
2023/10/30 02:17:57;;;;;;;3.07;1.10;;;13.50;88.90;;;;;;5008255;28;20468;-46
2023/10/30 02:20:26;;;;;;;2.63;0.73;;;13.50;89.00;;;;;;5009144;28;20436;-48
2023/10/30 02:22:54;;;;;;;2.67;1.00;;;13.60;89.00;;;;;;5022319;28;20534;-48
2023/10/30 02:25:25;;;;;;;1.80;0.90;;;13.50;89.00;;;;;;5028087;28;20490;-47
2023/10/30 02:27:52;;;;;;;1.33;0.80;;;13.50;89.10;;;;;;5026762;28;20545;-47
2023/10/30 02:30:21;;;;;;;3.30;1.37;;;13.50;89.00;;;;;;5027149;28;20835;-47
2023/10/30 02:32:50;;;;;;;2.73;0.90;;;13.60;89.10;;;;;;5025696;28;20467;-47
2023/10/30 02:35:20;;;;;;;2.10;0.83;;;13.50;89.00;;;;;;5009414;28;20845;-47
2023/10/30 02:37:48;;;;;;;2.80;1.10;;;13.50;89.00;;;;;;5006170;28;20837;-48
2023/10/30 02:40:16;;;;;;;2.10;0.90;;;13.50;89.00;;;;;;5007597;28;21022;-47
2023/10/30 02:42:46;;;;;;;1.60;0.80;;;13.50;89.00;;;;;;5026439;28;20509;-47
2023/10/30 02:45:14;;;;;;;3.57;0.90;;;13.50;89.00;;;;;;5009615;28;20463;-47
2023/10/30 02:47:42;;;;;;;2.03;0.83;;;13.60;89.10;;;;;;5023189;28;21064;-47
2023/10/30 02:50:12;;;;;;;1.20;0.70;;;13.50;89.10;;;;;;5026811;28;20460;-48
2023/10/30 02:52:40;;;;;;;4.63;0.97;;;13.50;89.00;;;;;;5007319;28;20480;-48
2023/10/30 02:55:10;;;;;;;3.60;0.80;;;13.50;89.00;;;;;;5009550;28;20440;-49
2023/10/30 02:57:38;;;;;;;2.73;1.13;;;13.50;89.00;;;;;;5008713;28;21050;-46
2023/10/30 03:00:08;;;;;;;1.70;0.70;;;13.50;89.00;;;;;;5008818;28;20520;-46
2023/10/30 03:02:37;;;;;;;1.87;1.00;;;13.50;88.90;;;;;;5024913;28;20516;-47
2023/10/30 03:05:05;;;;;;;1.93;1.00;;;13.50;89.10;;;;;;5026139;28;20975;-47
2023/10/30 03:07:34;;;;;;;2.23;0.67;;;13.50;89.00;;;;;;5025978;28;20489;-46
2023/10/30 03:10:02;;;;;;;2.97;0.97;;;13.50;89.10;;;;;;5027262;28;20443;-50
2023/10/30 03:12:30;;;;;;;3.37;0.93;;;13.50;89.10;;;;;;5011447;28;20805;-49
2023/10/30 03:14:58;;;;;;;1.00;0.50;;;13.50;89.00;;;;;;5031406;28;20450;-50
2023/10/30 03:17:27;;;;;;;4.40;0.90;;;13.50;89.00;;;;;;5010795;28;20445;-47
2023/10/30 03:19:55;;;;;;;1.90;0.87;;;13.50;89.10;;;;;;5030118;28;20438;-46
2023/10/30 03:22:23;;;;;;;3.07;1.00;;;13.50;89.10;;;;;;5004181;28;20998;-46
2023/10/30 03:24:51;;;;;;;3.00;1.03;;;13.50;89.10;;;;;;5027390;28;20463;-47
2023/10/30 03:27:19;;;;;;;1.43;1.00;;;13.50;90.10;;;;;;5009686;28;20451;-47
2023/10/30 03:29:47;;;;;;;2.70;0.87;;;13.50;89.10;;;;;;5011509;28;20952;-46
2023/10/30 03:32:16;;;;;;;3.33;1.47;;;13.50;89.20;;;;;;5028913;28;20944;-46
2023/10/30 03:34:45;;;;;;;2.70;1.00;;;13.50;89.10;;;;;;5011190;28;20501;-46
2023/10/30 03:37:13;;;;;;;4.33;1.17;;;13.50;89.10;;;;;;5029476;28;20516;-47
2023/10/30 03:39:41;;;;;;;2.00;0.80;;;13.50;89.10;;;;;;5025927;28;20490;-46
2023/10/30 03:42:09;;;;;;;2.60;0.97;;;13.50;89.00;;;;;;5029870;28;20467;-47
2023/10/30 03:44:38;;;;;;;2.23;0.90;;;13.50;88.90;;;;;;5029336;28;20463;-47
2023/10/30 03:47:06;;;;;;;1.50;0.70;;;13.50;89.10;;;;;;5029741;28;20521;-50
2023/10/30 03:49:34;;;;;;;4.00;0.77;;;13.50;88.90;;;;;;5008890;28;20880;-47
2023/10/30 03:52:03;;;;;;;3.33;0.87;;;13.50;89.00;;;;;;5030236;28;20524;-46
2023/10/30 03:54:31;;;;;;;2.60;1.13;;;13.50;89.00;;;;;;5026283;28;20511;-48
2023/10/30 03:56:59;;;;;;;3.57;1.13;;;13.50;89.00;;;;;;5030141;28;20989;-48
2023/10/30 03:59:27;;;;;;;1.20;0.60;;;13.50;90.00;;;;;;5011241;28;21016;-46
2023/10/30 04:01:55;;;;;;;1.93;0.80;;;13.50;89.00;;;;;;5026876;28;20444;-47
2023/10/30 04:04:23;;;;;;;1.90;0.90;;;13.50;88.90;;;;;;5028147;28;20514;-47
2023/10/30 04:06:52;;;;;;;2.33;0.80;;;13.50;89.10;;;;;;5029253;28;20547;-47
2023/10/30 04:09:21;;;;;;;1.40;0.70;;;13.50;89.10;;;;;;5024884;28;20500;-47
2023/10/30 04:11:49;;;;;;;2.43;0.70;;;13.50;89.00;;;;;;5029639;28;20433;-46
2023/10/30 04:14:17;;;;;;;2.17;0.97;;;13.50;89.00;;;;;;5028260;28;20467;-46
2023/10/30 04:16:45;;;;;;;1.30;0.47;;;13.50;89.00;;;;;;5029307;28;20919;-47
2023/10/30 04:19:13;;;;;;;2.23;0.87;;;13.50;89.00;;;;;;5024613;28;20494;-46
2023/10/30 04:21:41;;;;;;;4.23;1.00;;;13.50;89.00;;;;;;5028818;28;20458;-46
2023/10/30 04:24:10;;;;;;;2.70;1.17;;;13.50;89.40;;;;;;5026027;28;20889;-47
2023/10/30 04:26:39;;;;;;;2.53;0.83;;;13.50;89.00;;;;;;5028954;28;20474;-47
2023/10/30 04:29:07;;;;;;;1.47;0.70;;;13.50;89.00;;;;;;5027515;28;21704;-45
2023/10/30 04:31:35;;;;;;;3.33;0.90;;;13.50;88.90;;;;;;5028353;28;20436;-46
2023/10/30 04:34:04;;;;;;;2.73;1.07;;;13.50;88.90;;;;;;5024716;28;20559;-45
2023/10/30 04:36:33;;;;;;;2.40;0.70;;;13.40;88.90;;;;;;5028527;28;20487;-46
2023/10/30 04:39:01;;;;;;;2.00;0.80;;;13.40;89.00;;;;;;5025177;28;20540;-46
2023/10/30 04:41:31;;;;;;;2.80;0.90;;;13.50;89.10;;;;;;5028440;28;20431;-46
2023/10/30 04:44:01;;;;;;;2.43;0.67;;;13.40;89.00;;;;;;5027391;28;20755;-46
2023/10/30 04:46:29;;;;;;;1.50;0.77;;;13.40;89.00;;;;;;5025660;28;20499;-48
2023/10/30 04:48:57;;;;;;;2.40;0.93;;;13.40;89.00;;;;;;5027201;28;20548;-46
2023/10/30 04:51:25;;;;;;;2.37;1.00;;;13.40;88.90;;;;;;5028196;28;21036;-47
2023/10/30 04:53:54;;;;;;;2.57;1.30;;;13.40;88.90;;;;;;5025681;28;20826;-47
2023/10/30 04:56:22;;;;;;;2.77;0.90;;;13.40;89.10;;;;;;5025661;28;20986;-47
2023/10/30 04:58:50;;;;;;;3.20;1.23;;;13.40;89.10;;;;;;5025524;28;20482;-48
2023/10/30 05:01:20;;;;;;;2.93;0.90;;;13.40;89.30;;;;;;5027115;28;20474;-47
2023/10/30 05:03:48;;;;;;;2.93;0.80;;;13.50;89.30;;;;;;5026943;28;20484;-46
2023/10/30 05:06:16;;;;;;;5.70;1.03;;;13.40;89.20;;;;;;5027106;28;20452;-46
2023/10/30 05:08:45;;;;;;;3.10;1.47;;;13.40;89.20;;;;;;5024720;28;20881;-48
2023/10/30 05:11:13;;;;;;;3.47;0.97;;;13.40;90.10;;;;;;5028699;28;20531;-47
2023/10/30 05:13:41;;;;;;;1.93;0.83;;;13.40;89.30;;;;;;5009790;28;21045;-46
2023/10/30 05:16:09;;;;;;;4.03;1.17;;;13.40;89.10;;;;;;5028619;28;20481;-46
2023/10/30 05:18:39;;;;;;;3.37;1.10;;;13.40;89.40;;;;;;5024615;28;20474;-47
2023/10/30 05:21:07;;;;;;;2.33;1.07;;;13.40;89.50;;;;;;5027056;28;21024;-48
2023/10/30 05:23:35;;;;;;;2.03;0.80;;;13.40;89.50;;;;;;5025847;28;20485;-48
2023/10/30 05:26:03;;;;;;;5.50;1.27;;;13.40;89.30;;;;;;5027346;28;20505;-48
2023/10/30 05:28:31;;;;;;;1.60;0.90;;;13.40;89.40;;;;;;5025841;28;20481;-48
2023/10/30 05:31:05;;;;;;;2.20;1.33;;;13.40;89.70;;;;;;5026513;28;20444;-48
2023/10/30 05:33:34;;;;;;;2.70;0.90;;;13.40;89.40;;;;;;5025145;28;20485;-47
2023/10/30 05:36:04;;;;;;;2.13;0.90;;;13.40;89.60;;;;;;5027540;28;20446;-45
2023/10/30 05:38:32;;;;;;;7.33;1.70;;;13.40;89.60;;;;;;5024457;28;20525;-46
2023/10/30 05:41:00;;;;;;;3.43;1.00;;;13.40;89.70;;;;;;5027370;28;20447;-45
2023/10/30 05:43:28;;;;;;;2.53;1.13;;;13.40;89.50;;;;;;5027584;28;20497;-46
2023/10/30 05:45:57;;;;;;;3.93;1.00;;;13.40;89.50;;;;;;5023584;28;21054;-46
2023/10/30 05:48:25;;;;;;;3.23;0.90;;;13.40;89.60;;;;;;5026308;28;20830;-46
2023/10/30 05:50:53;;;;;;;4.80;1.23;;;13.40;89.70;;;;;;5027057;28;20529;-48
2023/10/30 05:53:23;;;;;;;3.63;1.30;;;13.40;89.90;;;;;;5023932;28;20894;-48
2023/10/30 05:55:51;;;;;;;2.83;1.27;;;13.40;89.60;;;;;;5027214;28;20490;-50
2023/10/30 05:58:19;;;;;;;2.53;1.33;;;13.40;89.80;;;;;;5027171;28;20822;-49
2023/10/30 06:00:50;;;;;;;3.03;1.03;;;13.40;89.70;;;;;;5025370;28;20533;-47
2023/10/30 06:03:18;;;;;;;4.53;1.23;;;13.40;89.60;;;;;;5027373;28;20837;-48
2023/10/30 06:05:47;;;;;;;4.57;1.83;;;13.40;89.60;;;;;;5024801;28;20471;-46
2023/10/30 06:08:15;;;;;;;2.30;1.27;;;13.40;89.70;;;;;;5024887;28;21095;-46
2023/10/30 06:10:45;;;;;;;4.73;1.23;;;13.40;89.50;;;;;;5026948;28;20595;-46
2023/10/30 06:13:13;;;;;;;2.47;0.93;;;13.40;89.60;;;;;;5026550;28;20468;-46
2023/10/30 06:15:41;;;;;;;1.93;0.90;;;13.40;89.40;;;;;;5026731;28;20545;-46
2023/10/30 06:18:10;;;;;;;2.80;1.00;;;13.40;89.60;;;;;;5024334;28;20756;-46
2023/10/30 06:20:38;;;;;;;2.93;0.93;;;13.40;89.70;;;;;;5027237;28;20446;-47
2023/10/30 06:23:06;;;;;;;2.13;1.00;;;13.40;89.70;;;;;;5024957;28;20470;-46
2023/10/30 06:25:38;;;;;;;2.80;1.40;;;13.40;89.90;;;;;;5027312;28;20480;-47
2023/10/30 06:28:10;;;;;;;5.80;1.23;;;13.40;89.90;;;;;;5026352;28;21808;-48
2023/10/30 06:30:39;;;;;;;2.87;0.90;;;13.40;89.90;;;;;;5025687;28;20433;-47
2023/10/30 06:33:07;;;;;;;3.77;1.10;;;13.30;89.60;;;;;;5024372;28;20512;-46
2023/10/30 06:35:35;;;;;;;1.87;0.63;;;13.30;90.00;;;;;;5027331;28;20448;-46
2023/10/30 06:38:03;;;;;;;2.47;1.40;;;13.40;90.00;;;;;;5024604;28;20523;-46
2023/10/30 06:40:31;;;;;;;2.30;0.90;;;13.30;90.00;;;;;;5026762;28;20428;-45
2023/10/30 06:43:00;;;;;;;3.53;1.37;;;13.30;89.80;;;;;;5024542;28;20943;-47
2023/10/30 06:45:29;;;;;;;3.73;1.10;;;13.30;89.70;;;;;;5026476;28;20572;-47
2023/10/30 06:47:57;;;;;;;4.33;1.50;;;13.40;89.80;;;;;;5008894;28;20545;-49
2023/10/30 06:50:25;;;;;;;3.27;1.00;;;13.30;89.60;;;;;;5031096;28;20931;-48
2023/10/30 06:52:53;;;;;;;2.60;1.57;;;13.30;89.70;;;;;;5027895;28;20468;-46
2023/10/30 06:55:21;;;;;;;3.87;1.40;;;13.30;89.60;;;;;;5013554;28;20458;-47
2023/10/30 06:57:49;;;;;;;1.50;0.70;;;13.30;89.90;;;;;;5029790;28;20495;-47
2023/10/30 07:00:18;;;;;;;3.50;1.20;;;13.30;89.60;;;;;;5029188;28;20498;-48
2023/10/30 07:02:48;;;;;;;3.20;1.33;;;13.40;90.00;;;;;;5028971;28;20494;-47
2023/10/30 07:05:16;;;;;;;2.50;0.97;;;13.30;89.90;;;;;;5030684;28;20482;-46
2023/10/30 07:07:44;;;;;;;2.30;1.30;;;13.40;89.80;;;;;;5028796;28;20466;-47
2023/10/30 07:10:12;;;;;;;3.17;1.30;;;13.40;90.00;;;;;;5028982;28;20739;-47
2023/10/30 07:12:41;;;;;;;1.70;0.70;;;13.30;89.90;;;;;;5031404;28;20788;-47
2023/10/30 07:15:10;;;;;;;2.27;1.30;;;13.40;90.00;;;;;;5028448;28;20467;-49
2023/10/30 07:17:38;;;;;;;2.33;1.00;;;13.30;89.90;;;;;;5025344;28;22481;-46
2023/10/30 07:20:08;;;;;;;2.60;1.30;;;13.30;89.90;;;;;;5025904;28;20767;-46
2023/10/30 07:22:36;;;;;;;4.10;1.07;;;13.30;89.90;;;;;;5030593;28;20436;-51
2023/10/30 07:25:06;;;;;;;3.03;1.20;;;13.30;89.90;;;;;;5029710;28;20473;-46
2023/10/30 07:28:16;;;;;;;2.47;1.00;;;13.30;90.00;;;;;;5015257;28;20510;-47
2023/10/30 07:30:44;;;;;;;5.30;1.27;;;13.30;90.00;;;;;;4959298;28;20440;-47
2023/10/30 07:33:12;;;;;;;2.10;0.80;;;13.30;90.00;;;;;;4966774;28;20461;-47
2023/10/30 07:35:42;;;;;;;3.20;0.90;;;13.30;90.00;;;;;;5000727;28;20465;-47
2023/10/30 07:38:10;;;;;;;2.57;1.10;;;13.30;90.00;;;;;;5029383;28;20472;-47
2023/10/30 07:40:38;;;;;;;2.80;1.03;;;13.30;90.10;;;;;;5030185;28;20497;-48
2023/10/30 07:43:06;;;;;;;2.80;1.10;;;13.30;90.00;;;;;;5029296;28;20462;-48
2023/10/30 07:45:40;;;;;;;3.43;1.17;;;13.30;90.00;;;;;;5029313;28;20499;-48
2023/10/30 07:48:09;;;;;;;2.47;1.27;;;13.30;90.00;;;;;;5027524;28;20495;-48
2023/10/30 07:50:37;;;;;;;2.17;0.90;;;13.30;90.00;;;;;;5029052;28;20461;-49
2023/10/30 07:53:06;;;;;;;3.63;1.40;;;13.30;90.10;;;;;;5024801;28;20474;-49
2023/10/30 07:55:36;;;;;;;2.50;1.03;;;13.30;90.10;;;;;;5028633;28;20540;-48
2023/10/30 07:58:05;;;;;;;3.20;1.30;;;13.30;90.00;;;;;;5028685;28;21019;-49
2023/10/30 08:00:33;;;;;;;3.30;0.60;;;13.30;90.00;;;;;;5025984;28;20914;-48
2023/10/30 08:03:18;;;;;;;2.07;0.90;;;13.30;90.00;;;;;;5026151;28;20467;-49
2023/10/30 08:05:47;;;;;;;2.53;0.90;;;13.30;90.00;;;;;;5028099;28;20563;-47
2023/10/30 08:08:17;;;;;;;2.43;0.83;;;13.40;90.00;;;;;;5024100;28;21421;-49
2023/10/30 08:10:45;;;;;;;1.27;0.70;;;13.30;90.10;;;;;;5026990;28;20424;-47
2023/10/30 08:13:14;;;;;;;3.23;0.83;;;13.30;90.00;;;;;;5028510;28;20478;-50
2023/10/30 08:15:42;;;;;;;2.20;0.67;;;13.30;89.90;;;;;;5028866;28;20963;-49
2023/10/30 08:18:10;;;;;;;2.10;1.10;;;13.40;89.80;;;;;;5026311;28;20471;-47
2023/10/30 08:20:39;;;;;;;2.13;0.80;;;13.30;89.50;;;;;;5028135;28;20435;-48
2023/10/30 08:23:07;;;;;;;2.20;0.63;;;13.40;89.50;;;;;;5024815;28;20490;-49
2023/10/30 08:25:36;;;;;;;2.60;0.87;;;13.30;89.40;;;;;;5026527;28;20479;-49
2023/10/30 08:28:05;;;;;;;1.83;0.90;;;13.30;89.30;;;;;;5028496;28;20475;-48
2023/10/30 08:30:34;;;;;;;1.93;0.80;;;13.30;89.60;;;;;;5028907;28;20428;-48
2023/10/30 08:33:04;;;;;;;4.93;0.93;;;13.30;89.40;;;;;;5027112;28;20548;-49
2023/10/30 08:35:33;;;;;;;3.63;0.80;;;13.30;89.80;;;;;;5027883;28;20962;-48
2023/10/30 08:38:03;;;;;;;1.97;0.83;;;13.30;89.50;;;;;;5025580;28;20497;-47
2023/10/30 08:40:32;;;;;;;2.53;0.87;;;13.30;89.40;;;;;;5028140;28;20442;-48
2023/10/30 08:43:01;;;;;;;2.77;1.10;;;13.30;89.30;;;;;;5028476;28;20558;-48
2023/10/30 08:45:29;;;;;;;2.50;1.00;;;13.30;89.30;;;;;;5028546;28;20472;-47
2023/10/30 08:47:57;;;;;;;3.07;2.30;;;13.30;89.40;;;;;;5023802;28;20906;-48
2023/10/30 08:50:44;;;;;;;1.80;0.90;;;13.30;89.40;;;;;;5027289;28;20751;-48
2023/10/30 08:53:12;;;;;;;1.50;0.80;;;13.30;89.30;;;;;;5024976;28;21081;-48
2023/10/30 08:55:41;;;;;;;4.23;0.60;;;13.30;89.20;;;;;;5028571;28;20491;-48
2023/10/30 08:58:11;;;;;;;3.00;0.90;;;13.30;89.20;;;;;;5027936;28;20452;-49
2023/10/30 09:00:39;;;;;;;1.83;1.00;;;13.30;89.20;;;;;;5028110;28;20464;-47
2023/10/30 09:03:07;;;;;;;1.90;0.87;;;13.30;89.00;;;;;;5025696;28;20460;-48
2023/10/30 09:05:35;;;;;;;4.90;0.90;;;13.30;89.00;;;;;;5027759;28;20573;-47
2023/10/30 09:08:04;;;;;;;2.60;1.40;;;13.30;89.00;;;;;;5024108;28;20485;-49
2023/10/30 09:10:32;;;;;;;2.67;0.67;;;13.30;89.00;;;;;;5028135;28;20941;-48
2023/10/30 09:13:00;;;;;;;1.53;0.73;;;13.30;88.90;;;;;;5007937;28;20549;-47
2023/10/30 09:15:30;;;;;;;1.83;0.80;;;13.30;88.90;;;;;;5027660;28;20462;-48
2023/10/30 09:17:58;;;;;;;4.83;1.10;;;13.40;88.90;;;;;;5006292;28;20456;-48
2023/10/30 09:20:26;;;;;;;1.30;0.80;;;13.30;88.80;;;;;;5027640;28;21000;-49
2023/10/30 09:22:54;;;;;;;4.33;0.70;;;13.30;90.00;;;;;;5025206;28;20981;-48
2023/10/30 09:25:22;;;;;;;2.53;1.10;;;13.30;88.80;;;;;;5025768;28;20866;-48
2023/10/30 09:27:51;;;;;;;1.67;0.73;;;13.30;88.70;;;;;;5025843;28;20555;-46
2023/10/30 09:30:19;;;;;;;1.47;0.87;;;13.30;88.80;;;;;;5027845;28;20504;-50
2023/10/30 09:32:50;;;;;;;2.13;0.70;;;13.30;88.80;;;;;;5025406;28;21094;-48
2023/10/30 09:35:18;;;;;;;1.50;0.70;;;13.30;88.70;;;;;;5026152;28;20465;-47
2023/10/30 09:37:46;;;;;;;4.90;1.17;;;13.30;88.70;;;;;;5024918;28;20550;-49
2023/10/30 09:40:14;;;;;;;1.30;0.77;;;13.30;88.70;;;;;;5025138;28;20520;-47
2023/10/30 09:42:52;;;;;;;1.87;0.90;;;13.30;88.70;;;;;;5025752;28;20453;-48
2023/10/30 09:45:22;;;;;;;2.77;0.90;;;13.30;88.60;;;;;;5025284;28;20873;-49
2023/10/30 09:47:54;;;;;;;1.10;0.60;;;13.30;88.60;;;;;;5023716;28;20460;-47
2023/10/30 09:50:23;;;;;;;2.40;0.80;;;13.30;88.50;;;;;;5016939;28;20429;-48
2023/10/30 09:52:53;;;;;;;2.67;0.80;;;13.30;88.60;;;;;;5007373;28;20908;-48
2023/10/30 09:55:23;;;;;;;5.33;0.80;;;13.30;89.30;;;;;;5014598;28;20470;-47
2023/10/30 09:57:52;;;;;;;2.83;0.80;;;13.30;88.60;;;;;;5013703;28;21968;-48
2023/10/30 10:00:21;;;;;;;1.57;0.60;;;13.30;88.50;;;;;;5011982;28;20449;-47
2023/10/30 10:02:49;;;;;;;1.33;0.60;;;13.30;88.50;;;;;;5009389;28;20457;-47
2023/10/30 10:05:19;;;;;;;1.67;0.70;;;13.30;88.50;;;;;;5011126;28;20456;-48
2023/10/30 10:07:47;;;;;;;1.27;0.50;;;13.30;88.60;;;;;;5006303;28;20462;-47
2023/10/30 10:10:18;;;;;;;2.60;1.00;;;13.30;88.40;;;;;;5015095;28;20441;-48
2023/10/30 10:12:50;;;;;;;2.63;0.80;;;13.30;88.40;;;;;;5009643;28;20523;-47
2023/10/30 10:15:20;;;;;;;1.30;0.63;;;13.30;88.40;;;;;;5013679;28;20464;-47
2023/10/30 10:17:49;;;;;;;2.53;0.60;;;13.30;88.50;;;;;;5007941;28;20522;-47
2023/10/30 10:20:21;;;;;;;1.43;0.70;;;13.30;88.40;;;;;;5015350;28;20455;-47
2023/10/30 10:22:50;;;;;;;1.40;0.60;;;13.30;88.40;;;;;;5010908;28;20476;-49
2023/10/30 10:25:18;;;;;;;1.27;0.53;;;13.30;88.30;;;;;;5017160;28;20455;-46
2023/10/30 10:27:49;;;;;;;1.67;0.50;;;13.30;88.50;;;;;;4996440;28;21043;-47
2023/10/30 10:30:23;;;;;;;1.30;0.57;;;13.30;88.40;;;;;;5013219;28;20440;-47
2023/10/30 10:32:53;;;;;;;1.93;0.63;;;13.30;88.40;;;;;;5011847;28;21294;-48
2023/10/30 10:35:23;;;;;;;1.40;0.70;;;13.30;88.40;;;;;;5020904;28;20464;-47
2023/10/30 10:38:08;;;;;;;1.40;0.50;;;13.30;88.40;;;;;;5013197;28;20469;-46
2023/10/30 10:40:36;;;;;;;2.03;0.57;;;13.30;88.40;;;;;;5015615;28;20440;-48
2023/10/30 10:43:07;;;;;;;1.10;0.70;;;13.30;88.50;;;;;;5010151;28;20454;-48
2023/10/30 10:45:36;;;;;;;1.50;0.90;;;13.30;88.50;;;;;;5012600;28;20507;-47
2023/10/30 10:48:05;;;;;;;1.50;0.70;;;13.30;88.50;;;;;;5015241;28;20478;-48
2023/10/30 10:50:35;;;;;;;1.93;0.73;;;13.30;88.40;;;;;;5026981;28;20858;-47
2023/10/30 10:53:05;;;;;;;1.40;0.60;;;13.30;88.40;;;;;;5025934;28;20484;-48
2023/10/30 10:55:40;;;;;;;1.00;0.60;;;13.30;88.40;;;;;;5025220;28;20531;-48
2023/10/30 10:58:10;;;;;;;1.00;0.47;;;13.30;88.40;;;;;;5025438;28;22550;-48
2023/10/30 11:00:44;;;;;;;1.90;0.83;;;13.30;88.30;;;;;;5025481;28;20428;-48
2023/10/30 11:03:13;;;;;;;2.13;0.80;;;13.30;88.30;;;;;;5029028;28;21124;-47
2023/10/30 11:05:44;;;;;;;2.47;0.63;;;13.30;88.30;;;;;;5028554;28;20972;-48
2023/10/30 11:08:32;;;;;;;1.63;0.70;;;13.30;88.30;;;;;;5027027;28;20846;-46
2023/10/30 11:11:08;;;;;;;1.40;0.60;;;13.30;88.40;;;;;;5029385;28;21019;-48
2023/10/30 11:13:48;;;;;;;1.80;0.70;;;13.30;88.40;;;;;;5027588;28;20903;-48
2023/10/30 11:16:22;;;;;;;1.10;0.50;;;13.30;88.30;;;;;;5025426;28;20522;-48
2023/10/30 11:18:52;;;;;;;2.00;0.80;;;13.30;88.40;;;;;;5027710;28;20472;-48
2023/10/30 11:21:26;;;;;;;2.57;0.70;;;13.30;88.40;;;;;;5030001;28;20497;-47
2023/10/30 11:23:57;;;;;;;1.57;1.17;;;13.30;88.40;;;;;;5027149;28;20921;-47
2023/10/30 11:26:39;;;;;;;1.40;0.70;;;13.30;88.40;;;;;;5030105;28;20468;-46
2023/10/30 11:29:10;;;;;;;1.93;0.60;;;13.30;88.40;;;;;;5026836;28;20470;-49
2023/10/30 11:32:03;;;;;;;1.13;0.47;;;13.30;88.80;;;;;;5026721;28;20440;-46
2023/10/30 11:34:33;;;;;;;1.50;0.70;;;13.30;88.50;;;;;;5003413;28;20475;-48
2023/10/30 11:37:10;;;;;;;2.30;0.70;;;13.30;88.50;;;;;;5011997;28;20449;-48
2023/10/30 11:39:40;;;;;;;1.30;0.60;;;13.30;88.40;;;;;;5005292;28;20477;-47
2023/10/30 11:42:27;;;;;;;1.50;0.60;;;13.30;88.80;;;;;;5029873;28;20933;-47
2023/10/30 11:45:17;;;;;;;1.47;0.87;;;13.30;88.70;;;;;;5027734;28;20469;-50
2023/10/30 11:47:47;;;;;;;2.70;1.33;;;13.30;88.50;;;;;;5022796;28;20495;-47
2023/10/30 11:50:19;;;;;;;1.33;0.53;;;13.30;89.00;;;;;;5009863;28;20438;-49
2023/10/30 11:52:51;;;;;;;1.90;1.10;;;13.30;88.80;;;;;;5007391;28;20885;-46
2023/10/30 11:55:19;;;;;;;1.30;0.60;;;13.30;88.70;;;;;;5009395;28;20449;-47
2023/10/30 11:57:48;;;;;;;1.60;0.90;;;13.30;89.50;;;;;;5008817;28;20468;-46
2023/10/30 12:00:18;;;;;;;1.20;0.60;;;13.30;89.90;;;;;;5010271;28;20852;-48
2023/10/30 12:02:46;;;;;;;0.90;0.50;;;13.30;88.80;;;;;;5008722;28;20540;-50
2023/10/30 12:05:14;;;;;;;1.10;0.50;;;13.30;88.90;;;;;;5009887;28;20975;-48
2023/10/30 12:07:43;;;;;;;1.57;0.50;;;13.30;88.70;;;;;;5005212;28;20454;-50
2023/10/30 12:10:12;;;;;;;1.47;0.70;;;13.30;88.70;;;;;;5009549;28;20466;-47
2023/10/30 12:12:41;;;;;;;1.20;0.63;;;13.30;88.90;;;;;;5008841;28;20516;-47
2023/10/30 12:15:10;;;;;;;1.40;0.80;;;13.30;88.90;;;;;;5009820;28;20446;-48
2023/10/30 12:17:40;;;;;;;1.63;0.50;;;13.30;88.80;;;;;;5006484;28;21435;-49
2023/10/30 12:20:09;;;;;;;2.60;0.60;;;13.30;88.90;;;;;;5008694;28;20449;-48
2023/10/30 12:22:41;;;;;;;1.37;0.70;;;13.30;88.80;;;;;;5009203;28;20438;-49
2023/10/30 12:25:16;;;;;;;1.20;0.70;;;13.30;88.90;;;;;;5010302;28;20471;-48
2023/10/30 12:27:45;;;;;;;2.17;0.80;;;13.30;88.80;;;;;;5007489;28;20978;-47
2023/10/30 12:30:15;;;;;;;1.37;0.70;;;13.30;88.90;;;;;;5009380;28;20946;-48
2023/10/30 12:32:43;;;;;;;1.77;0.77;;;13.30;88.90;;;;;;5008686;28;20453;-47
2023/10/30 12:35:12;;;;;;;1.13;0.50;;;13.30;89.30;;;;;;5009996;28;20482;-48
2023/10/30 12:37:41;;;;;;;2.00;0.57;;;13.30;88.90;;;;;;5007431;28;20445;-50
2023/10/30 12:40:12;;;;;;;1.20;0.60;;;13.30;88.80;;;;;;5008421;28;20589;-46
2023/10/30 12:42:43;;;;;;;2.30;0.77;;;13.30;88.80;;;;;;5007255;28;20442;-47
2023/10/30 12:45:13;;;;;;;1.30;0.60;;;13.30;88.90;;;;;;5010159;28;20971;-47
2023/10/30 12:47:43;;;;;;;1.60;0.63;;;13.40;89.00;;;;;;5006470;28;20554;-47
2023/10/30 12:50:13;;;;;;;1.37;0.60;;;13.30;89.30;;;;;;5027651;28;20989;-48
2023/10/30 12:52:42;;;;;;;1.17;0.50;;;13.30;89.00;;;;;;5027490;28;20470;-50
2023/10/30 12:55:11;;;;;;;1.57;0.70;;;13.30;88.90;;;;;;5028706;28;20462;-48
2023/10/30 12:57:39;;;;;;;1.10;0.53;;;13.40;88.90;;;;;;5026552;28;20425;-49
2023/10/30 13:00:11;;;;;;;1.10;0.57;;;13.30;88.90;;;;;;5027777;28;20421;-47